sensor_id;sensor_type;location;lat;lon;timestamp;P1;durP1;ratioP1;P2;durP2;ratioP2
38851;SDS011;24605;50.092;9.182;2023-03-01T00:01:02;21.73;;;9.95;;
38851;SDS011;24605;50.092;9.182;2023-03-01T00:03:29;24.10;;;10.65;;
38851;SDS011;24605;50.092;9.182;2023-03-01T00:05:56;22.10;;;10.52;;
38851;SDS011;24605;50.092;9.182;2023-03-01T00:08:23;23.48;;;10.48;;
38851;SDS011;24605;50.092;9.182;2023-03-01T00:10:51;23.00;;;11.30;;
38851;SDS011;24605;50.092;9.182;2023-03-01T00:13:26;23.20;;;10.90;;
38851;SDS011;24605;50.092;9.182;2023-03-01T00:15:52;23.42;;;10.77;;
38851;SDS011;24605;50.092;9.182;2023-03-01T00:18:19;24.77;;;11.38;;
38851;SDS011;24605;50.092;9.182;2023-03-01T00:20:48;21.85;;;11.02;;
38851;SDS011;24605;50.092;9.182;2023-03-01T00:23:17;26.50;;;11.80;;
38851;SDS011;24605;50.092;9.182;2023-03-01T00:25:44;21.60;;;10.88;;
38851;SDS011;24605;50.092;9.182;2023-03-01T00:28:11;22.67;;;11.32;;
38851;SDS011;24605;50.092;9.182;2023-03-01T00:30:37;24.40;;;11.27;;
38851;SDS011;24605;50.092;9.182;2023-03-01T00:33:03;22.27;;;10.68;;
38851;SDS011;24605;50.092;9.182;2023-03-01T00:35:31;24.75;;;12.10;;
38851;SDS011;24605;50.092;9.182;2023-03-01T00:37:58;21.05;;;11.02;;
38851;SDS011;24605;50.092;9.182;2023-03-01T00:40:27;24.48;;;11.50;;
38851;SDS011;24605;50.092;9.182;2023-03-01T00:42:54;19.88;;;10.20;;
38851;SDS011;24605;50.092;9.182;2023-03-01T00:45:21;24.00;;;11.85;;
38851;SDS011;24605;50.092;9.182;2023-03-01T00:47:48;25.50;;;11.50;;
38851;SDS011;24605;50.092;9.182;2023-03-01T00:50:15;26.67;;;11.77;;
38851;SDS011;24605;50.092;9.182;2023-03-01T00:52:42;23.27;;;10.07;;
38851;SDS011;24605;50.092;9.182;2023-03-01T00:55:08;25.63;;;11.20;;
38851;SDS011;24605;50.092;9.182;2023-03-01T00:57:37;24.95;;;11.05;;
38851;SDS011;24605;50.092;9.182;2023-03-01T01:00:04;23.85;;;11.32;;
38851;SDS011;24605;50.092;9.182;2023-03-01T01:02:32;25.90;;;10.98;;
38851;SDS011;24605;50.092;9.182;2023-03-01T01:05:00;23.05;;;10.80;;
38851;SDS011;24605;50.092;9.182;2023-03-01T01:07:26;23.70;;;11.20;;
38851;SDS011;24605;50.092;9.182;2023-03-01T01:09:53;22.75;;;10.90;;
38851;SDS011;24605;50.092;9.182;2023-03-01T01:12:20;23.98;;;11.25;;
38851;SDS011;24605;50.092;9.182;2023-03-01T01:14:49;25.15;;;11.45;;
38851;SDS011;24605;50.092;9.182;2023-03-01T01:17:15;22.77;;;10.35;;
38851;SDS011;24605;50.092;9.182;2023-03-01T01:19:42;24.92;;;11.05;;
38851;SDS011;24605;50.092;9.182;2023-03-01T01:22:08;23.13;;;11.05;;
38851;SDS011;24605;50.092;9.182;2023-03-01T01:24:35;21.92;;;10.57;;
38851;SDS011;24605;50.092;9.182;2023-03-01T01:27:01;24.17;;;11.25;;
38851;SDS011;24605;50.092;9.182;2023-03-01T01:29:28;24.67;;;10.65;;
38851;SDS011;24605;50.092;9.182;2023-03-01T01:31:56;22.20;;;11.43;;
38851;SDS011;24605;50.092;9.182;2023-03-01T01:34:23;23.55;;;11.15;;
38851;SDS011;24605;50.092;9.182;2023-03-01T01:36:50;24.83;;;11.35;;
38851;SDS011;24605;50.092;9.182;2023-03-01T01:39:18;25.75;;;12.02;;
38851;SDS011;24605;50.092;9.182;2023-03-01T01:41:45;26.05;;;11.90;;
38851;SDS011;24605;50.092;9.182;2023-03-01T01:44:13;24.23;;;11.50;;
38851;SDS011;24605;50.092;9.182;2023-03-01T01:46:42;23.58;;;10.73;;
38851;SDS011;24605;50.092;9.182;2023-03-01T01:49:16;25.25;;;11.10;;
38851;SDS011;24605;50.092;9.182;2023-03-01T01:51:48;24.02;;;11.00;;
38851;SDS011;24605;50.092;9.182;2023-03-01T01:54:18;22.27;;;10.75;;
38851;SDS011;24605;50.092;9.182;2023-03-01T01:56:50;25.60;;;10.95;;
38851;SDS011;24605;50.092;9.182;2023-03-01T01:59:20;24.08;;;10.98;;
38851;SDS011;24605;50.092;9.182;2023-03-01T02:01:50;22.38;;;11.27;;
38851;SDS011;24605;50.092;9.182;2023-03-01T02:04:18;24.42;;;11.07;;
38851;SDS011;24605;50.092;9.182;2023-03-01T02:06:46;23.98;;;10.23;;
38851;SDS011;24605;50.092;9.182;2023-03-01T02:09:17;23.02;;;10.93;;
38851;SDS011;24605;50.092;9.182;2023-03-01T02:11:47;25.75;;;12.18;;
38851;SDS011;24605;50.092;9.182;2023-03-01T02:14:14;23.20;;;10.77;;
38851;SDS011;24605;50.092;9.182;2023-03-01T02:16:41;22.77;;;11.15;;
38851;SDS011;24605;50.092;9.182;2023-03-01T02:19:09;24.55;;;11.88;;
38851;SDS011;24605;50.092;9.182;2023-03-01T02:21:46;26.15;;;11.60;;
38851;SDS011;24605;50.092;9.182;2023-03-01T02:24:23;27.48;;;11.48;;
38851;SDS011;24605;50.092;9.182;2023-03-01T02:26:59;23.00;;;11.10;;
38851;SDS011;24605;50.092;9.182;2023-03-01T02:29:28;24.98;;;11.43;;
38851;SDS011;24605;50.092;9.182;2023-03-01T02:31:56;26.08;;;12.25;;
38851;SDS011;24605;50.092;9.182;2023-03-01T02:34:26;34.42;;;14.82;;
38851;SDS011;24605;50.092;9.182;2023-03-01T02:36:55;30.90;;;14.15;;
38851;SDS011;24605;50.092;9.182;2023-03-01T02:39:24;29.08;;;13.23;;
38851;SDS011;24605;50.092;9.182;2023-03-01T02:41:53;26.42;;;12.27;;
38851;SDS011;24605;50.092;9.182;2023-03-01T02:44:22;24.35;;;12.05;;
38851;SDS011;24605;50.092;9.182;2023-03-01T02:46:51;25.52;;;12.13;;
38851;SDS011;24605;50.092;9.182;2023-03-01T02:49:20;23.05;;;10.73;;
38851;SDS011;24605;50.092;9.182;2023-03-01T02:51:54;24.38;;;11.60;;
38851;SDS011;24605;50.092;9.182;2023-03-01T02:54:41;24.08;;;11.68;;
38851;SDS011;24605;50.092;9.182;2023-03-01T02:57:12;23.60;;;11.32;;
38851;SDS011;24605;50.092;9.182;2023-03-01T02:59:39;25.77;;;11.70;;
38851;SDS011;24605;50.092;9.182;2023-03-01T03:02:18;25.60;;;11.60;;
38851;SDS011;24605;50.092;9.182;2023-03-01T03:05:00;26.88;;;12.25;;
38851;SDS011;24605;50.092;9.182;2023-03-01T03:07:28;24.98;;;11.63;;
38851;SDS011;24605;50.092;9.182;2023-03-01T03:09:56;28.60;;;12.65;;
38851;SDS011;24605;50.092;9.182;2023-03-01T03:12:22;27.85;;;12.20;;
38851;SDS011;24605;50.092;9.182;2023-03-01T03:14:49;26.55;;;12.45;;
38851;SDS011;24605;50.092;9.182;2023-03-01T03:17:17;22.42;;;11.93;;
38851;SDS011;24605;50.092;9.182;2023-03-01T03:19:44;24.38;;;11.60;;
38851;SDS011;24605;50.092;9.182;2023-03-01T03:22:10;25.23;;;11.75;;
38851;SDS011;24605;50.092;9.182;2023-03-01T03:24:37;24.02;;;11.73;;
38851;SDS011;24605;50.092;9.182;2023-03-01T03:27:04;24.17;;;12.23;;
38851;SDS011;24605;50.092;9.182;2023-03-01T03:29:31;29.50;;;11.38;;
38851;SDS011;24605;50.092;9.182;2023-03-01T03:31:58;27.83;;;12.02;;
38851;SDS011;24605;50.092;9.182;2023-03-01T03:34:26;25.83;;;12.40;;
38851;SDS011;24605;50.092;9.182;2023-03-01T03:36:53;30.20;;;12.05;;
38851;SDS011;24605;50.092;9.182;2023-03-01T03:39:24;26.17;;;12.32;;
38851;SDS011;24605;50.092;9.182;2023-03-01T03:41:51;25.65;;;12.32;;
38851;SDS011;24605;50.092;9.182;2023-03-01T03:44:18;26.42;;;12.18;;
38851;SDS011;24605;50.092;9.182;2023-03-01T03:46:45;30.80;;;12.32;;
38851;SDS011;24605;50.092;9.182;2023-03-01T03:49:11;26.80;;;12.43;;
38851;SDS011;24605;50.092;9.182;2023-03-01T03:51:39;27.42;;;12.13;;
38851;SDS011;24605;50.092;9.182;2023-03-01T03:54:05;25.83;;;11.77;;
38851;SDS011;24605;50.092;9.182;2023-03-01T03:56:32;27.20;;;11.63;;
38851;SDS011;24605;50.092;9.182;2023-03-01T03:58:58;23.50;;;11.82;;
38851;SDS011;24605;50.092;9.182;2023-03-01T04:01:25;25.70;;;11.85;;
38851;SDS011;24605;50.092;9.182;2023-03-01T04:03:51;26.23;;;12.73;;
38851;SDS011;24605;50.092;9.182;2023-03-01T04:06:19;28.45;;;12.15;;
38851;SDS011;24605;50.092;9.182;2023-03-01T04:08:48;26.10;;;12.07;;
38851;SDS011;24605;50.092;9.182;2023-03-01T04:11:25;27.50;;;12.15;;
38851;SDS011;24605;50.092;9.182;2023-03-01T04:13:56;27.42;;;12.27;;
38851;SDS011;24605;50.092;9.182;2023-03-01T04:16:24;29.42;;;12.63;;
38851;SDS011;24605;50.092;9.182;2023-03-01T04:18:51;31.38;;;14.45;;
38851;SDS011;24605;50.092;9.182;2023-03-01T04:21:19;26.85;;;13.40;;
38851;SDS011;24605;50.092;9.182;2023-03-01T04:23:45;30.23;;;13.15;;
38851;SDS011;24605;50.092;9.182;2023-03-01T04:26:13;25.65;;;13.02;;
38851;SDS011;24605;50.092;9.182;2023-03-01T04:28:40;30.63;;;14.23;;
38851;SDS011;24605;50.092;9.182;2023-03-01T04:31:10;30.48;;;13.80;;
38851;SDS011;24605;50.092;9.182;2023-03-01T04:33:43;29.63;;;13.57;;
38851;SDS011;24605;50.092;9.182;2023-03-01T04:36:11;30.40;;;13.55;;
38851;SDS011;24605;50.092;9.182;2023-03-01T04:38:39;27.92;;;13.70;;
38851;SDS011;24605;50.092;9.182;2023-03-01T04:41:06;30.20;;;13.18;;
38851;SDS011;24605;50.092;9.182;2023-03-01T04:43:35;33.90;;;14.27;;
38851;SDS011;24605;50.092;9.182;2023-03-01T04:46:03;28.45;;;13.07;;
38851;SDS011;24605;50.092;9.182;2023-03-01T04:48:34;28.65;;;13.13;;
38851;SDS011;24605;50.092;9.182;2023-03-01T04:51:01;27.85;;;13.75;;
38851;SDS011;24605;50.092;9.182;2023-03-01T04:53:28;26.95;;;13.25;;
38851;SDS011;24605;50.092;9.182;2023-03-01T04:55:55;26.42;;;12.65;;
38851;SDS011;24605;50.092;9.182;2023-03-01T04:58:23;28.20;;;13.75;;
38851;SDS011;24605;50.092;9.182;2023-03-01T05:00:51;27.45;;;13.48;;
38851;SDS011;24605;50.092;9.182;2023-03-01T05:03:19;31.67;;;14.45;;
38851;SDS011;24605;50.092;9.182;2023-03-01T05:05:46;28.98;;;13.90;;
38851;SDS011;24605;50.092;9.182;2023-03-01T05:08:15;29.23;;;13.70;;
38851;SDS011;24605;50.092;9.182;2023-03-01T05:10:43;30.67;;;13.48;;
38851;SDS011;24605;50.092;9.182;2023-03-01T05:13:12;27.80;;;13.50;;
38851;SDS011;24605;50.092;9.182;2023-03-01T05:15:40;31.35;;;14.40;;
38851;SDS011;24605;50.092;9.182;2023-03-01T05:18:08;27.65;;;12.43;;
38851;SDS011;24605;50.092;9.182;2023-03-01T05:20:36;29.40;;;13.90;;
38851;SDS011;24605;50.092;9.182;2023-03-01T05:23:03;30.15;;;14.50;;
38851;SDS011;24605;50.092;9.182;2023-03-01T05:25:31;27.48;;;12.80;;
38851;SDS011;24605;50.092;9.182;2023-03-01T05:27:58;29.88;;;13.35;;
38851;SDS011;24605;50.092;9.182;2023-03-01T05:30:29;29.60;;;13.90;;
38851;SDS011;24605;50.092;9.182;2023-03-01T05:32:56;27.20;;;12.35;;
38851;SDS011;24605;50.092;9.182;2023-03-01T05:35:23;26.65;;;13.15;;
38851;SDS011;24605;50.092;9.182;2023-03-01T05:37:50;26.15;;;12.60;;
38851;SDS011;24605;50.092;9.182;2023-03-01T05:40:18;25.25;;;13.07;;
38851;SDS011;24605;50.092;9.182;2023-03-01T05:42:46;32.42;;;14.38;;
38851;SDS011;24605;50.092;9.182;2023-03-01T05:45:15;30.63;;;13.70;;
38851;SDS011;24605;50.092;9.182;2023-03-01T05:47:43;29.58;;;13.57;;
38851;SDS011;24605;50.092;9.182;2023-03-01T05:50:11;27.13;;;13.70;;
38851;SDS011;24605;50.092;9.182;2023-03-01T05:52:40;27.90;;;13.13;;
38851;SDS011;24605;50.092;9.182;2023-03-01T05:55:07;25.00;;;12.02;;
38851;SDS011;24605;50.092;9.182;2023-03-01T05:57:34;28.98;;;13.45;;
38851;SDS011;24605;50.092;9.182;2023-03-01T06:00:01;31.80;;;12.90;;
38851;SDS011;24605;50.092;9.182;2023-03-01T06:02:27;27.00;;;13.55;;
38851;SDS011;24605;50.092;9.182;2023-03-01T06:04:54;26.95;;;13.15;;
38851;SDS011;24605;50.092;9.182;2023-03-01T06:07:20;28.10;;;12.57;;
38851;SDS011;24605;50.092;9.182;2023-03-01T06:09:48;26.77;;;13.05;;
38851;SDS011;24605;50.092;9.182;2023-03-01T06:12:15;29.23;;;14.32;;
38851;SDS011;24605;50.092;9.182;2023-03-01T06:14:42;30.80;;;14.77;;
38851;SDS011;24605;50.092;9.182;2023-03-01T06:17:09;26.92;;;12.95;;
38851;SDS011;24605;50.092;9.182;2023-03-01T06:19:35;27.73;;;13.30;;
38851;SDS011;24605;50.092;9.182;2023-03-01T06:22:01;28.13;;;13.55;;
38851;SDS011;24605;50.092;9.182;2023-03-01T06:24:28;31.98;;;14.63;;
38851;SDS011;24605;50.092;9.182;2023-03-01T06:26:56;31.60;;;12.95;;
38851;SDS011;24605;50.092;9.182;2023-03-01T06:29:22;25.80;;;12.95;;
38851;SDS011;24605;50.092;9.182;2023-03-01T06:31:49;28.60;;;13.77;;
38851;SDS011;24605;50.092;9.182;2023-03-01T06:34:15;28.10;;;12.27;;
38851;SDS011;24605;50.092;9.182;2023-03-01T06:36:41;27.65;;;13.20;;
38851;SDS011;24605;50.092;9.182;2023-03-01T06:39:08;27.55;;;12.68;;
38851;SDS011;24605;50.092;9.182;2023-03-01T06:41:35;23.70;;;11.90;;
38851;SDS011;24605;50.092;9.182;2023-03-01T06:44:02;25.30;;;11.48;;
38851;SDS011;24605;50.092;9.182;2023-03-01T06:46:29;27.95;;;13.18;;
38851;SDS011;24605;50.092;9.182;2023-03-01T06:48:56;28.00;;;12.68;;
38851;SDS011;24605;50.092;9.182;2023-03-01T06:51:22;23.83;;;11.88;;
38851;SDS011;24605;50.092;9.182;2023-03-01T06:53:50;25.70;;;12.25;;
38851;SDS011;24605;50.092;9.182;2023-03-01T06:56:16;25.95;;;12.48;;
38851;SDS011;24605;50.092;9.182;2023-03-01T06:58:43;25.50;;;12.10;;
38851;SDS011;24605;50.092;9.182;2023-03-01T07:01:11;26.98;;;12.15;;
38851;SDS011;24605;50.092;9.182;2023-03-01T07:03:37;23.20;;;11.70;;
38851;SDS011;24605;50.092;9.182;2023-03-01T07:06:04;22.98;;;11.00;;
38851;SDS011;24605;50.092;9.182;2023-03-01T07:08:31;23.77;;;11.48;;
38851;SDS011;24605;50.092;9.182;2023-03-01T07:10:57;23.45;;;11.63;;
38851;SDS011;24605;50.092;9.182;2023-03-01T07:13:27;23.73;;;11.38;;
38851;SDS011;24605;50.092;9.182;2023-03-01T07:15:53;24.63;;;11.40;;
38851;SDS011;24605;50.092;9.182;2023-03-01T07:18:21;27.27;;;11.90;;
38851;SDS011;24605;50.092;9.182;2023-03-01T07:20:48;27.33;;;11.82;;
38851;SDS011;24605;50.092;9.182;2023-03-01T07:23:14;24.85;;;11.23;;
38851;SDS011;24605;50.092;9.182;2023-03-01T07:25:40;21.58;;;11.07;;
38851;SDS011;24605;50.092;9.182;2023-03-01T07:28:07;22.92;;;11.40;;
38851;SDS011;24605;50.092;9.182;2023-03-01T07:30:34;23.08;;;11.35;;
38851;SDS011;24605;50.092;9.182;2023-03-01T07:33:00;23.77;;;11.52;;
38851;SDS011;24605;50.092;9.182;2023-03-01T07:35:28;22.50;;;11.43;;
38851;SDS011;24605;50.092;9.182;2023-03-01T07:37:54;21.33;;;11.52;;
38851;SDS011;24605;50.092;9.182;2023-03-01T07:40:21;21.60;;;11.88;;
38851;SDS011;24605;50.092;9.182;2023-03-01T07:42:47;23.08;;;11.52;;
38851;SDS011;24605;50.092;9.182;2023-03-01T07:45:14;21.65;;;11.13;;
38851;SDS011;24605;50.092;9.182;2023-03-01T07:47:40;23.33;;;11.45;;
38851;SDS011;24605;50.092;9.182;2023-03-01T07:50:07;20.48;;;11.13;;
38851;SDS011;24605;50.092;9.182;2023-03-01T07:52:36;22.50;;;11.77;;
38851;SDS011;24605;50.092;9.182;2023-03-01T07:55:03;20.75;;;11.50;;
38851;SDS011;24605;50.092;9.182;2023-03-01T07:57:30;20.65;;;10.57;;
38851;SDS011;24605;50.092;9.182;2023-03-01T07:59:56;20.77;;;10.75;;
38851;SDS011;24605;50.092;9.182;2023-03-01T08:02:23;21.73;;;11.20;;
38851;SDS011;24605;50.092;9.182;2023-03-01T08:04:49;21.35;;;11.32;;
38851;SDS011;24605;50.092;9.182;2023-03-01T08:07:15;21.92;;;12.07;;
38851;SDS011;24605;50.092;9.182;2023-03-01T08:09:43;20.17;;;10.95;;
38851;SDS011;24605;50.092;9.182;2023-03-01T08:12:10;21.48;;;11.20;;
38851;SDS011;24605;50.092;9.182;2023-03-01T08:14:36;24.65;;;12.02;;
38851;SDS011;24605;50.092;9.182;2023-03-01T08:17:03;22.23;;;10.50;;
38851;SDS011;24605;50.092;9.182;2023-03-01T08:19:30;24.25;;;11.05;;
38851;SDS011;24605;50.092;9.182;2023-03-01T08:21:56;24.30;;;12.65;;
38851;SDS011;24605;50.092;9.182;2023-03-01T08:24:24;23.10;;;11.48;;
38851;SDS011;24605;50.092;9.182;2023-03-01T08:26:53;22.20;;;11.18;;
38851;SDS011;24605;50.092;9.182;2023-03-01T08:29:19;21.45;;;11.35;;
38851;SDS011;24605;50.092;9.182;2023-03-01T08:31:46;23.10;;;11.70;;
38851;SDS011;24605;50.092;9.182;2023-03-01T08:34:14;23.27;;;11.60;;
38851;SDS011;24605;50.092;9.182;2023-03-01T08:36:42;20.70;;;11.38;;
38851;SDS011;24605;50.092;9.182;2023-03-01T08:39:11;21.58;;;11.40;;
38851;SDS011;24605;50.092;9.182;2023-03-01T08:41:39;24.42;;;11.88;;
38851;SDS011;24605;50.092;9.182;2023-03-01T08:44:07;21.63;;;11.45;;
38851;SDS011;24605;50.092;9.182;2023-03-01T08:46:36;24.25;;;11.95;;
38851;SDS011;24605;50.092;9.182;2023-03-01T08:49:04;20.88;;;11.63;;
38851;SDS011;24605;50.092;9.182;2023-03-01T08:51:31;19.02;;;11.02;;
38851;SDS011;24605;50.092;9.182;2023-03-01T08:54:01;21.83;;;11.43;;
38851;SDS011;24605;50.092;9.182;2023-03-01T08:56:30;23.83;;;11.63;;
38851;SDS011;24605;50.092;9.182;2023-03-01T08:58:57;22.60;;;10.80;;
38851;SDS011;24605;50.092;9.182;2023-03-01T09:01:25;22.85;;;11.77;;
38851;SDS011;24605;50.092;9.182;2023-03-01T09:03:51;22.05;;;11.70;;
38851;SDS011;24605;50.092;9.182;2023-03-01T09:06:18;22.85;;;11.95;;
38851;SDS011;24605;50.092;9.182;2023-03-01T09:08:45;24.20;;;11.82;;
38851;SDS011;24605;50.092;9.182;2023-03-01T09:11:13;20.92;;;10.95;;
38851;SDS011;24605;50.092;9.182;2023-03-01T09:13:42;21.48;;;11.15;;
38851;SDS011;24605;50.092;9.182;2023-03-01T09:16:08;20.13;;;11.25;;
38851;SDS011;24605;50.092;9.182;2023-03-01T09:18:38;22.13;;;11.55;;
38851;SDS011;24605;50.092;9.182;2023-03-01T09:21:05;23.30;;;12.02;;
38851;SDS011;24605;50.092;9.182;2023-03-01T09:23:33;21.33;;;11.52;;
38851;SDS011;24605;50.092;9.182;2023-03-01T09:26:01;22.60;;;11.68;;
38851;SDS011;24605;50.092;9.182;2023-03-01T09:28:27;23.63;;;11.88;;
38851;SDS011;24605;50.092;9.182;2023-03-01T09:30:57;25.15;;;11.32;;
38851;SDS011;24605;50.092;9.182;2023-03-01T09:33:24;22.20;;;12.00;;
38851;SDS011;24605;50.092;9.182;2023-03-01T09:35:56;22.33;;;11.98;;
38851;SDS011;24605;50.092;9.182;2023-03-01T09:38:23;20.65;;;10.93;;
38851;SDS011;24605;50.092;9.182;2023-03-01T09:40:49;22.08;;;11.38;;
38851;SDS011;24605;50.092;9.182;2023-03-01T09:43:18;19.60;;;10.85;;
38851;SDS011;24605;50.092;9.182;2023-03-01T09:45:49;21.27;;;11.07;;
38851;SDS011;24605;50.092;9.182;2023-03-01T09:48:20;21.67;;;10.73;;
38851;SDS011;24605;50.092;9.182;2023-03-01T09:50:50;18.02;;;9.98;;
38851;SDS011;24605;50.092;9.182;2023-03-01T09:53:19;19.27;;;10.60;;
38851;SDS011;24605;50.092;9.182;2023-03-01T09:55:49;20.38;;;11.02;;
38851;SDS011;24605;50.092;9.182;2023-03-01T09:58:28;22.52;;;11.13;;
38851;SDS011;24605;50.092;9.182;2023-03-01T10:01:02;19.77;;;10.30;;
38851;SDS011;24605;50.092;9.182;2023-03-01T10:03:36;18.90;;;10.40;;
38851;SDS011;24605;50.092;9.182;2023-03-01T10:06:09;21.30;;;10.85;;
38851;SDS011;24605;50.092;9.182;2023-03-01T10:08:42;19.30;;;10.35;;
38851;SDS011;24605;50.092;9.182;2023-03-01T10:11:17;19.27;;;10.57;;
38851;SDS011;24605;50.092;9.182;2023-03-01T10:13:48;22.10;;;10.82;;
38851;SDS011;24605;50.092;9.182;2023-03-01T10:16:21;22.45;;;10.32;;
38851;SDS011;24605;50.092;9.182;2023-03-01T10:18:53;17.88;;;10.20;;
38851;SDS011;24605;50.092;9.182;2023-03-01T10:21:25;20.02;;;10.88;;
38851;SDS011;24605;50.092;9.182;2023-03-01T10:23:55;21.05;;;10.35;;
38851;SDS011;24605;50.092;9.182;2023-03-01T10:26:38;17.30;;;10.50;;
38851;SDS011;24605;50.092;9.182;2023-03-01T10:29:13;18.65;;;10.45;;
38851;SDS011;24605;50.092;9.182;2023-03-01T10:31:41;18.58;;;10.20;;
38851;SDS011;24605;50.092;9.182;2023-03-01T10:34:10;18.83;;;9.35;;
38851;SDS011;24605;50.092;9.182;2023-03-01T10:36:39;15.13;;;8.65;;
38851;SDS011;24605;50.092;9.182;2023-03-01T10:39:12;17.65;;;10.45;;
38851;SDS011;24605;50.092;9.182;2023-03-01T10:42:00;17.75;;;9.73;;
38851;SDS011;24605;50.092;9.182;2023-03-01T10:44:35;20.00;;;10.43;;
38851;SDS011;24605;50.092;9.182;2023-03-01T10:47:04;18.63;;;10.18;;
38851;SDS011;24605;50.092;9.182;2023-03-01T10:49:31;17.23;;;8.93;;
38851;SDS011;24605;50.092;9.182;2023-03-01T10:51:58;20.40;;;10.02;;
38851;SDS011;24605;50.092;9.182;2023-03-01T10:54:44;18.52;;;9.80;;
38851;SDS011;24605;50.092;9.182;2023-03-01T10:57:24;17.35;;;9.43;;
38851;SDS011;24605;50.092;9.182;2023-03-01T11:00:00;15.68;;;8.40;;
38851;SDS011;24605;50.092;9.182;2023-03-01T11:02:41;17.70;;;8.85;;
38851;SDS011;24605;50.092;9.182;2023-03-01T11:05:13;16.13;;;9.00;;
38851;SDS011;24605;50.092;9.182;2023-03-01T11:07:48;18.30;;;8.77;;
38851;SDS011;24605;50.092;9.182;2023-03-01T11:10:18;15.75;;;7.88;;
38851;SDS011;24605;50.092;9.182;2023-03-01T11:12:50;14.10;;;8.07;;
38851;SDS011;24605;50.092;9.182;2023-03-01T11:15:21;14.95;;;8.23;;
38851;SDS011;24605;50.092;9.182;2023-03-01T11:17:50;14.70;;;8.05;;
38851;SDS011;24605;50.092;9.182;2023-03-01T11:20:20;15.45;;;7.90;;
38851;SDS011;24605;50.092;9.182;2023-03-01T11:22:52;13.60;;;7.22;;
38851;SDS011;24605;50.092;9.182;2023-03-01T11:25:23;12.23;;;7.05;;
38851;SDS011;24605;50.092;9.182;2023-03-01T11:27:51;14.70;;;7.68;;
38851;SDS011;24605;50.092;9.182;2023-03-01T11:30:20;14.55;;;7.38;;
38851;SDS011;24605;50.092;9.182;2023-03-01T11:32:51;12.90;;;7.47;;
38851;SDS011;24605;50.092;9.182;2023-03-01T11:35:28;13.10;;;6.85;;
38851;SDS011;24605;50.092;9.182;2023-03-01T11:37:59;13.50;;;7.07;;
38851;SDS011;24605;50.092;9.182;2023-03-01T11:40:32;10.15;;;5.68;;
38851;SDS011;24605;50.092;9.182;2023-03-01T11:43:03;11.30;;;6.00;;
38851;SDS011;24605;50.092;9.182;2023-03-01T11:45:39;12.43;;;7.00;;
38851;SDS011;24605;50.092;9.182;2023-03-01T11:48:24;14.35;;;6.30;;
38851;SDS011;24605;50.092;9.182;2023-03-01T11:51:00;11.70;;;6.85;;
38851;SDS011;24605;50.092;9.182;2023-03-01T11:53:34;12.38;;;7.00;;
38851;SDS011;24605;50.092;9.182;2023-03-01T11:56:19;10.82;;;6.00;;
38851;SDS011;24605;50.092;9.182;2023-03-01T11:59:00;11.05;;;5.95;;
38851;SDS011;24605;50.092;9.182;2023-03-01T12:01:37;10.88;;;5.88;;
38851;SDS011;24605;50.092;9.182;2023-03-01T12:07:24;11.93;;;5.97;;
38851;SDS011;24605;50.092;9.182;2023-03-01T12:10:07;11.15;;;6.50;;
38851;SDS011;24605;50.092;9.182;2023-03-01T12:12:56;10.55;;;5.95;;
38851;SDS011;24605;50.092;9.182;2023-03-01T12:18:43;12.85;;;6.53;;
38851;SDS011;24605;50.092;9.182;2023-03-01T12:21:28;11.35;;;6.63;;
38851;SDS011;24605;50.092;9.182;2023-03-01T12:24:21;10.23;;;6.00;;
38851;SDS011;24605;50.092;9.182;2023-03-01T12:27:02;11.27;;;5.95;;
38851;SDS011;24605;50.092;9.182;2023-03-01T12:29:46;11.70;;;6.10;;
38851;SDS011;24605;50.092;9.182;2023-03-01T12:32:22;11.27;;;5.72;;
38851;SDS011;24605;50.092;9.182;2023-03-01T12:35:06;12.85;;;6.47;;
38851;SDS011;24605;50.092;9.182;2023-03-01T12:37:54;10.23;;;6.00;;
38851;SDS011;24605;50.092;9.182;2023-03-01T12:40:33;12.48;;;6.53;;
38851;SDS011;24605;50.092;9.182;2023-03-01T12:43:12;12.43;;;6.10;;
38851;SDS011;24605;50.092;9.182;2023-03-01T12:45:54;10.70;;;5.35;;
38851;SDS011;24605;50.092;9.182;2023-03-01T12:48:35;10.25;;;5.80;;
38851;SDS011;24605;50.092;9.182;2023-03-01T12:51:10;11.15;;;6.00;;
38851;SDS011;24605;50.092;9.182;2023-03-01T12:53:40;12.60;;;7.45;;
38851;SDS011;24605;50.092;9.182;2023-03-01T12:56:11;14.80;;;7.63;;
38851;SDS011;24605;50.092;9.182;2023-03-01T12:58:42;12.77;;;7.78;;
38851;SDS011;24605;50.092;9.182;2023-03-01T13:01:25;14.55;;;7.82;;
38851;SDS011;24605;50.092;9.182;2023-03-01T13:06:55;13.48;;;7.65;;
38851;SDS011;24605;50.092;9.182;2023-03-01T13:09:33;15.65;;;8.13;;
38851;SDS011;24605;50.092;9.182;2023-03-01T13:12:14;11.50;;;7.25;;
38851;SDS011;24605;50.092;9.182;2023-03-01T13:18:02;15.65;;;7.70;;
38851;SDS011;24605;50.092;9.182;2023-03-01T13:20:31;13.18;;;7.18;;
38851;SDS011;24605;50.092;9.182;2023-03-01T13:23:02;14.90;;;7.93;;
38851;SDS011;24605;50.092;9.182;2023-03-01T13:25:34;14.70;;;8.73;;
38851;SDS011;24605;50.092;9.182;2023-03-01T13:31:55;15.77;;;8.63;;
38851;SDS011;24605;50.092;9.182;2023-03-01T13:34:41;14.40;;;8.25;;
38851;SDS011;24605;50.092;9.182;2023-03-01T13:37:27;14.57;;;8.32;;
38851;SDS011;24605;50.092;9.182;2023-03-01T13:40:56;15.67;;;8.43;;
38851;SDS011;24605;50.092;9.182;2023-03-01T13:43:23;15.57;;;8.95;;
38851;SDS011;24605;50.092;9.182;2023-03-01T13:45:54;15.57;;;8.40;;
38851;SDS011;24605;50.092;9.182;2023-03-01T13:48:22;14.98;;;8.88;;
38851;SDS011;24605;50.092;9.182;2023-03-01T13:50:53;15.85;;;8.55;;
38851;SDS011;24605;50.092;9.182;2023-03-01T13:53:22;15.05;;;8.63;;
38851;SDS011;24605;50.092;9.182;2023-03-01T13:55:51;18.70;;;9.13;;
38851;SDS011;24605;50.092;9.182;2023-03-01T13:58:22;22.10;;;9.15;;
38851;SDS011;24605;50.092;9.182;2023-03-01T14:00:57;15.63;;;8.90;;
38851;SDS011;24605;50.092;9.182;2023-03-01T14:03:26;16.92;;;9.15;;
38851;SDS011;24605;50.092;9.182;2023-03-01T14:06:01;16.77;;;9.25;;
38851;SDS011;24605;50.092;9.182;2023-03-01T14:08:31;15.38;;;9.23;;
38851;SDS011;24605;50.092;9.182;2023-03-01T14:11:02;14.98;;;8.68;;
38851;SDS011;24605;50.092;9.182;2023-03-01T14:13:53;15.95;;;9.02;;
38851;SDS011;24605;50.092;9.182;2023-03-01T14:16:29;16.00;;;9.38;;
38851;SDS011;24605;50.092;9.182;2023-03-01T14:19:10;18.60;;;9.68;;
38851;SDS011;24605;50.092;9.182;2023-03-01T14:21:45;14.70;;;9.48;;
38851;SDS011;24605;50.092;9.182;2023-03-01T14:24:16;15.32;;;9.30;;
38851;SDS011;24605;50.092;9.182;2023-03-01T14:26:45;15.38;;;8.93;;
38851;SDS011;24605;50.092;9.182;2023-03-01T14:29:33;16.85;;;9.20;;
38851;SDS011;24605;50.092;9.182;2023-03-01T14:32:08;18.25;;;9.98;;
38851;SDS011;24605;50.092;9.182;2023-03-01T14:34:35;16.52;;;9.52;;
38851;SDS011;24605;50.092;9.182;2023-03-01T14:37:15;17.08;;;9.50;;
38851;SDS011;24605;50.092;9.182;2023-03-01T14:39:45;17.35;;;9.52;;
38851;SDS011;24605;50.092;9.182;2023-03-01T14:42:13;17.63;;;10.27;;
38851;SDS011;24605;50.092;9.182;2023-03-01T14:44:40;15.68;;;9.95;;
38851;SDS011;24605;50.092;9.182;2023-03-01T14:47:10;17.83;;;10.00;;
38851;SDS011;24605;50.092;9.182;2023-03-01T14:49:40;17.48;;;9.68;;
38851;SDS011;24605;50.092;9.182;2023-03-01T14:52:18;17.13;;;9.55;;
38851;SDS011;24605;50.092;9.182;2023-03-01T14:54:47;14.77;;;9.48;;
38851;SDS011;24605;50.092;9.182;2023-03-01T14:57:16;16.83;;;9.70;;
38851;SDS011;24605;50.092;9.182;2023-03-01T14:59:46;16.45;;;9.80;;